createdAt,value
2018-12-12T00:00:00.774Z,-1.28
2018-12-12T00:02:28.208Z,-1.35
2018-12-12T00:04:55.602Z,-1.38
2018-12-12T00:07:23.255Z,-1.45
2018-12-12T00:09:50.729Z,-1.55
2018-12-12T00:12:18.107Z,-1.58
2018-12-12T00:14:45.432Z,-1.52
2018-12-12T00:17:12.835Z,-1.57
2018-12-12T00:19:40.207Z,-1.66
2018-12-12T00:22:07.578Z,-1.73
2018-12-12T00:24:34.900Z,-1.83
2018-12-12T00:27:02.308Z,-1.63
2018-12-12T00:29:29.630Z,-1.52
2018-12-12T00:31:56.982Z,-1.68
2018-12-12T00:34:24.336Z,-1.67
2018-12-12T00:36:51.713Z,-1.55
2018-12-12T00:39:19.085Z,-1.51
2018-12-12T00:41:46.465Z,-1.75
2018-12-12T00:44:13.835Z,-1.84
2018-12-12T00:46:41.507Z,-1.76
2018-12-12T00:49:08.945Z,-1.48
2018-12-12T00:51:36.531Z,-1.43
2018-12-12T00:54:03.914Z,-1.47
2018-12-12T00:56:31.212Z,-1.54
2018-12-12T00:58:58.553Z,-1.69
2018-12-12T01:01:25.948Z,-1.60
2018-12-12T01:03:53.385Z,-1.39
2018-12-12T01:06:20.722Z,-1.41
2018-12-12T01:08:48.073Z,-1.52
2018-12-12T01:11:20.889Z,-1.47
2018-12-12T01:13:48.284Z,-1.52
2018-12-12T01:16:15.707Z,-1.54
2018-12-12T01:18:43.179Z,-1.43
2018-12-12T01:21:10.526Z,-1.42
2018-12-12T01:23:37.913Z,-1.45
2018-12-12T01:26:05.268Z,-1.46
2018-12-12T01:28:32.645Z,-1.42
2018-12-12T01:30:59.982Z,-1.48
2018-12-12T01:33:27.360Z,-1.60
2018-12-12T01:35:54.705Z,-1.70
2018-12-12T01:38:22.075Z,-1.79
2018-12-12T01:40:49.466Z,-1.86
2018-12-12T01:43:16.843Z,-1.90
2018-12-12T01:45:44.221Z,-1.92
2018-12-12T01:48:11.525Z,-1.88
2018-12-12T01:50:38.888Z,-1.87
2018-12-12T01:53:07.628Z,-1.90
2018-12-12T01:55:35.056Z,-1.94
2018-12-12T01:58:02.420Z,-1.91
2018-12-12T02:00:29.795Z,-1.94
2018-12-12T02:02:57.174Z,-1.84
2018-12-12T02:05:24.581Z,-1.69
2018-12-12T02:07:52.233Z,-1.60
2018-12-12T02:10:19.640Z,-1.53
2018-12-12T02:12:57.028Z,-1.61
2018-12-12T02:15:24.364Z,-1.65
2018-12-12T02:17:51.772Z,-1.57
2018-12-12T02:20:19.162Z,-1.44
2018-12-12T02:22:46.510Z,-1.50
2018-12-12T02:25:13.874Z,-1.58
2018-12-12T02:27:41.279Z,-1.48
2018-12-12T02:30:08.617Z,-1.39
2018-12-12T02:32:36.029Z,-1.47
2018-12-12T02:35:03.569Z,-1.51
2018-12-12T02:37:30.995Z,-1.59
2018-12-12T02:42:36.730Z,-1.75
2018-12-12T02:45:04.196Z,-1.84
2018-12-12T02:47:31.614Z,-1.85
2018-12-12T02:49:58.970Z,-1.81
2018-12-12T02:52:26.360Z,-1.84
2018-12-12T02:54:53.730Z,-1.69
2018-12-12T02:57:21.111Z,-1.77
2018-12-12T02:59:48.488Z,-1.67
2018-12-12T03:02:15.828Z,-1.77
2018-12-12T03:04:43.324Z,-1.84
2018-12-12T03:07:10.699Z,-1.82
2018-12-12T03:09:38.080Z,-2.00
2018-12-12T03:12:05.432Z,-2.10
2018-12-12T03:14:32.785Z,-2.15
2018-12-12T03:17:00.153Z,-2.12
2018-12-12T03:19:27.515Z,-1.97
2018-12-12T03:21:54.868Z,-1.91
2018-12-12T03:24:22.203Z,-1.72
2018-12-12T03:26:49.596Z,-1.69
2018-12-12T03:29:17.081Z,-1.64
2018-12-12T03:31:44.452Z,-1.73
2018-12-12T03:34:11.746Z,-1.82
2018-12-12T03:36:39.100Z,-1.71
2018-12-12T03:39:07.200Z,-1.64
2018-12-12T03:41:34.582Z,-1.64
2018-12-12T03:44:01.965Z,-1.66
2018-12-12T03:46:29.425Z,-1.69
2018-12-12T03:48:56.766Z,-1.72
2018-12-12T03:51:24.138Z,-1.57
2018-12-12T03:53:51.462Z,-1.51
2018-12-12T03:56:18.861Z,-1.56
2018-12-12T03:58:46.230Z,-1.45
2018-12-12T04:01:13.703Z,-1.45
2018-12-12T04:03:48.956Z,-1.55
2018-12-12T04:06:16.772Z,-1.60
2018-12-12T04:08:44.173Z,-1.57
2018-12-12T04:11:11.514Z,-1.61
2018-12-12T04:13:38.914Z,-1.67
2018-12-12T04:16:06.296Z,-1.60
2018-12-12T04:18:33.655Z,-1.67
2018-12-12T04:21:00.972Z,-1.54
2018-12-12T04:23:28.379Z,-1.52
2018-12-12T04:25:55.828Z,-1.60
2018-12-12T04:28:23.199Z,-1.77
2018-12-12T04:30:50.561Z,-1.93
2018-12-12T04:33:17.938Z,-2.08
2018-12-12T04:35:45.270Z,-1.98
2018-12-12T04:38:12.695Z,-1.86
2018-12-12T04:40:40.044Z,-1.84
2018-12-12T04:43:07.486Z,-1.90
2018-12-12T04:45:34.832Z,-1.92
2018-12-12T04:48:02.178Z,-1.75
2018-12-12T04:50:29.568Z,-1.65
2018-12-12T04:52:56.915Z,-1.70
2018-12-12T04:55:24.290Z,-1.56
2018-12-12T04:57:51.750Z,-1.49
2018-12-12T05:00:19.221Z,-1.49
2018-12-12T05:02:47.261Z,-1.54
2018-12-12T05:05:14.646Z,-1.47
2018-12-12T05:07:42.025Z,-1.54
2018-12-12T05:10:09.432Z,-1.51
2018-12-12T05:12:36.924Z,-1.38
2018-12-12T05:15:04.866Z,-1.29
2018-12-12T05:17:32.220Z,-1.33
2018-12-12T05:19:59.629Z,-1.43
2018-12-12T05:22:26.974Z,-1.37
2018-12-12T05:24:54.381Z,-1.45
2018-12-12T05:27:21.780Z,-1.45
2018-12-12T05:29:49.155Z,-1.48
2018-12-12T05:32:16.518Z,-1.58
2018-12-12T05:34:43.858Z,-1.65
2018-12-12T05:37:11.264Z,-1.71
2018-12-12T05:39:38.609Z,-1.70
2018-12-12T05:42:06.025Z,-1.63
2018-12-12T05:44:33.409Z,-1.54
2018-12-12T05:47:00.826Z,-1.47
2018-12-12T05:49:28.194Z,-1.32
2018-12-12T05:51:55.599Z,-1.22
2018-12-12T05:54:23.010Z,-1.14
2018-12-12T05:56:52.491Z,-1.02
2018-12-12T05:59:19.792Z,-1.02
2018-12-12T06:01:47.154Z,-1.00
2018-12-12T06:04:14.537Z,-0.93
2018-12-12T06:06:41.891Z,-0.97
2018-12-12T06:09:09.288Z,-0.91
2018-12-12T06:11:36.677Z,-0.99
2018-12-12T06:14:04.076Z,-1.09
2018-12-12T06:16:31.495Z,-1.08
2018-12-12T06:18:58.922Z,-1.10
2018-12-12T06:21:26.336Z,-1.14
2018-12-12T06:23:53.729Z,-1.06
2018-12-12T06:26:21.099Z,-1.02
2018-12-12T06:28:48.500Z,-1.15
2018-12-12T06:31:15.874Z,-1.15
2018-12-12T06:33:43.891Z,-1.17
2018-12-12T06:36:11.271Z,-1.18
2018-12-12T06:38:38.688Z,-1.11
2018-12-12T06:41:06.016Z,-1.01
2018-12-12T06:43:33.466Z,-0.99
2018-12-12T06:46:00.809Z,-1.03
2018-12-12T06:48:28.216Z,-0.93
2018-12-12T06:50:55.586Z,-0.85
2018-12-12T06:53:22.956Z,-0.85
2018-12-12T06:55:50.376Z,-0.88
2018-12-12T06:58:17.775Z,-0.86
2018-12-12T07:00:45.149Z,-0.92
2018-12-12T07:03:12.599Z,-0.86
2018-12-12T07:05:40.004Z,-0.82
2018-12-12T07:08:07.366Z,-0.81
2018-12-12T07:10:34.736Z,-0.74
2018-12-12T07:13:02.073Z,-0.68
2018-12-12T07:15:29.476Z,-0.76
2018-12-12T07:17:56.852Z,-0.82
2018-12-12T07:20:24.240Z,-0.83
2018-12-12T07:22:51.599Z,-0.83
2018-12-12T07:25:19.009Z,-0.78
2018-12-12T07:27:46.362Z,-0.76
2018-12-12T07:30:13.735Z,-0.83
2018-12-12T07:32:41.261Z,-0.86
2018-12-12T07:35:08.670Z,-0.76
2018-12-12T07:37:36.078Z,-0.75
2018-12-12T07:40:03.765Z,-0.87
2018-12-12T07:42:31.186Z,-0.86
2018-12-12T07:44:58.610Z,-0.78
2018-12-12T07:47:25.997Z,-0.74
2018-12-12T07:49:53.398Z,-0.68
2018-12-12T07:52:20.802Z,-0.57
2018-12-12T07:54:48.180Z,-0.52
2018-12-12T07:57:15.556Z,-0.44
2018-12-12T07:59:42.972Z,-0.46
2018-12-12T08:02:10.331Z,-0.36
2018-12-12T08:04:37.642Z,-0.30
2018-12-12T08:07:05.088Z,-0.25
2018-12-12T08:09:32.479Z,-0.23
2018-12-12T08:11:59.884Z,-0.31
2018-12-12T08:14:27.285Z,-0.36
2018-12-12T08:16:54.655Z,-0.37
2018-12-12T08:19:21.989Z,-0.30
2018-12-12T08:21:49.395Z,-0.27
2018-12-12T08:24:16.785Z,-0.17
2018-12-12T08:26:44.236Z,-0.15
2018-12-12T08:29:11.743Z,-0.12
2018-12-12T08:31:39.156Z,-0.12
2018-12-12T08:34:06.576Z,-0.17
2018-12-12T08:36:33.942Z,-0.23
2018-12-12T08:39:01.349Z,-0.26
2018-12-12T08:41:28.731Z,-0.25
2018-12-12T08:43:56.182Z,-0.31
2018-12-12T08:46:23.561Z,-0.18
2018-12-12T08:48:51.029Z,-0.14
2018-12-12T08:51:18.447Z,-0.04
2018-12-12T08:53:45.839Z,0.02
2018-12-12T08:56:13.224Z,0.09
2018-12-12T08:58:40.623Z,0.16
2018-12-12T09:01:07.994Z,0.25
2018-12-12T09:03:35.400Z,0.36
2018-12-12T09:06:02.741Z,0.47
2018-12-12T09:08:30.166Z,0.58
2018-12-12T09:10:57.522Z,0.68
2018-12-12T09:13:24.902Z,0.70
2018-12-12T09:15:52.318Z,0.84
2018-12-12T09:18:19.726Z,0.83
2018-12-12T09:20:47.114Z,0.90
2018-12-12T09:23:14.480Z,1.04
2018-12-12T09:25:41.940Z,1.18
2018-12-12T09:28:09.316Z,1.28
2018-12-12T09:30:36.721Z,1.33
2018-12-12T09:33:04.062Z,1.23
2018-12-12T09:35:31.553Z,1.20
2018-12-12T09:37:58.945Z,1.16
2018-12-12T09:40:26.344Z,1.07
2018-12-12T09:42:53.814Z,0.95
2018-12-12T09:45:21.813Z,0.97
2018-12-12T09:47:49.545Z,0.98
2018-12-12T09:50:17.153Z,0.89
2018-12-12T09:52:44.565Z,0.86
2018-12-12T09:55:11.940Z,0.96
2018-12-12T09:57:39.338Z,1.00
2018-12-12T10:00:06.791Z,0.93
2018-12-12T10:02:34.200Z,0.83
2018-12-12T10:05:01.639Z,0.83
2018-12-12T10:07:29.088Z,0.73
2018-12-12T10:09:56.548Z,0.61
2018-12-12T10:12:23.990Z,0.59
2018-12-12T10:14:51.420Z,0.83
2018-12-12T10:17:18.806Z,1.12
2018-12-12T10:19:46.196Z,1.20
2018-12-12T10:22:13.569Z,1.02
2018-12-12T10:24:40.976Z,1.03
2018-12-12T10:27:08.376Z,0.99
2018-12-12T10:29:35.827Z,1.02
2018-12-12T10:32:03.259Z,1.05
2018-12-12T10:34:30.630Z,1.08
2018-12-12T10:36:58.046Z,1.20
2018-12-12T10:39:25.452Z,1.29
2018-12-12T10:41:52.828Z,1.39
2018-12-12T10:44:20.227Z,1.47
2018-12-12T10:46:47.603Z,1.57
2018-12-12T10:49:15.046Z,1.75
2018-12-12T10:51:42.447Z,2.01
2018-12-12T10:54:09.881Z,2.16
2018-12-12T10:56:37.292Z,2.22
2018-12-12T10:59:04.751Z,2.04
2018-12-12T11:01:37.810Z,1.81
2018-12-12T11:04:05.286Z,1.66
2018-12-12T11:06:32.698Z,1.52
2018-12-12T11:09:00.054Z,1.44
2018-12-12T11:11:27.475Z,1.41
2018-12-12T11:13:54.861Z,1.33
2018-12-12T11:16:22.263Z,1.21
2018-12-12T11:18:49.651Z,1.20
2018-12-12T11:21:17.162Z,1.17
2018-12-12T11:23:44.592Z,1.11
2018-12-12T11:26:12.042Z,1.14
2018-12-12T11:28:39.448Z,1.21
2018-12-12T11:31:06.900Z,1.15
2018-12-12T11:33:34.311Z,1.35
2018-12-12T11:36:01.731Z,1.43
2018-12-12T11:38:29.086Z,1.52
2018-12-12T11:40:56.517Z,1.60
2018-12-12T11:43:23.911Z,1.57
2018-12-12T11:45:51.325Z,1.49
2018-12-12T11:48:18.750Z,1.56
2018-12-12T11:50:46.107Z,1.68
2018-12-12T11:53:13.540Z,1.97
2018-12-12T11:55:40.903Z,1.95
2018-12-12T11:58:08.271Z,1.62
2018-12-12T12:00:35.656Z,1.55
2018-12-12T12:03:03.079Z,1.57
2018-12-12T12:05:30.565Z,1.54
2018-12-12T12:07:57.989Z,1.31
2018-12-12T12:10:25.352Z,1.06
2018-12-12T12:12:52.757Z,1.07
2018-12-12T12:15:20.130Z,1.26
2018-12-12T12:17:47.496Z,1.35
2018-12-12T12:20:14.921Z,1.28
2018-12-12T12:22:42.372Z,1.40
2018-12-12T12:25:09.787Z,1.46
2018-12-12T12:27:37.132Z,1.55
2018-12-12T12:30:05.315Z,1.51
2018-12-12T12:32:32.716Z,1.44
2018-12-12T12:35:00.234Z,1.38
2018-12-12T12:37:27.717Z,1.30
2018-12-12T12:39:55.087Z,1.19
2018-12-12T12:42:22.521Z,1.20
2018-12-12T12:44:49.950Z,1.27
2018-12-12T12:47:17.341Z,1.18
2018-12-12T12:49:44.806Z,1.32
2018-12-12T12:52:12.168Z,1.72
2018-12-12T12:54:39.567Z,2.19
2018-12-12T12:57:06.957Z,2.65
2018-12-12T12:59:34.412Z,2.81
2018-12-12T13:02:01.822Z,2.88
2018-12-12T13:04:29.218Z,2.75
2018-12-12T13:06:56.632Z,2.69
2018-12-12T13:09:23.988Z,2.67
2018-12-12T13:11:51.428Z,2.69
2018-12-12T13:14:18.856Z,2.73
2018-12-12T13:16:46.250Z,2.92
2018-12-12T13:19:13.631Z,2.92
2018-12-12T13:21:41.025Z,2.83
2018-12-12T13:24:08.426Z,2.94
2018-12-12T13:26:35.861Z,2.90
2018-12-12T13:29:03.227Z,2.72
2018-12-12T13:31:30.667Z,2.24
2018-12-12T13:33:58.046Z,2.01
2018-12-12T13:36:25.482Z,2.44
2018-12-12T13:38:52.828Z,2.80
2018-12-12T13:41:20.225Z,2.88
2018-12-12T13:43:47.703Z,2.63
2018-12-12T13:46:15.108Z,2.39
2018-12-12T13:48:42.534Z,1.99
2018-12-12T13:51:09.919Z,1.57
2018-12-12T13:53:37.364Z,1.20
2018-12-12T13:56:04.722Z,0.85
2018-12-12T13:58:32.204Z,0.64
2018-12-12T14:00:59.567Z,0.48
2018-12-12T14:03:26.995Z,0.46
2018-12-12T14:05:54.383Z,0.36
2018-12-12T14:08:21.822Z,0.32
2018-12-12T14:10:49.227Z,0.15
2018-12-12T14:13:16.605Z,0.07
2018-12-12T14:15:44.022Z,-0.04
2018-12-12T14:18:11.424Z,-0.11
2018-12-12T14:20:38.863Z,-0.16
2018-12-12T14:23:06.432Z,-0.20
2018-12-12T14:25:33.792Z,-0.24
2018-12-12T14:28:01.167Z,-0.31
2018-12-12T14:30:28.592Z,-0.30
2018-12-12T14:32:55.997Z,-0.31
2018-12-12T14:35:23.439Z,-0.24
2018-12-12T14:37:50.798Z,-0.20
2018-12-12T14:40:18.211Z,-0.18
2018-12-12T14:42:45.633Z,-0.17
2018-12-12T14:45:13.047Z,-0.19
2018-12-12T14:47:40.427Z,-0.12
2018-12-12T14:50:08.006Z,-0.11
2018-12-12T14:52:35.385Z,-0.08
2018-12-12T14:55:02.789Z,-0.04
2018-12-12T14:57:30.230Z,-0.01
2018-12-12T14:59:57.657Z,0.01
2018-12-12T15:02:25.088Z,-0.03
2018-12-12T15:04:52.563Z,-0.10
2018-12-12T15:07:20.023Z,-0.11
2018-12-12T15:09:47.402Z,-0.14
2018-12-12T15:12:14.832Z,-0.15
2018-12-12T15:14:42.367Z,-0.17
2018-12-12T15:17:09.852Z,-0.25
2018-12-12T15:19:37.227Z,-0.34
2018-12-12T15:22:04.907Z,-0.40
2018-12-12T15:24:32.295Z,-0.44
2018-12-12T15:26:59.707Z,-0.48
2018-12-12T15:29:27.087Z,-0.44
2018-12-12T15:31:54.617Z,-0.37
2018-12-12T15:34:22.044Z,-0.29
2018-12-12T15:36:49.414Z,-0.28
2018-12-12T15:39:16.851Z,-0.39
2018-12-12T15:41:44.274Z,-0.43
2018-12-12T15:44:11.714Z,-0.44
2018-12-12T15:46:39.092Z,-0.54
2018-12-12T15:49:06.492Z,-0.57
2018-12-12T15:51:33.987Z,-0.58
2018-12-12T15:54:01.391Z,-0.59
2018-12-12T15:56:28.745Z,-0.51
2018-12-12T15:58:56.214Z,-0.40
2018-12-12T16:01:23.577Z,-0.43
2018-12-12T16:03:50.966Z,-0.44
2018-12-12T16:06:18.357Z,-0.44
2018-12-12T16:08:45.778Z,-0.45
2018-12-12T16:11:13.194Z,-0.50
2018-12-12T16:13:40.629Z,-0.52
2018-12-12T16:16:08.032Z,-0.52
2018-12-12T16:18:35.504Z,-0.59
2018-12-12T16:21:03.050Z,-0.53
2018-12-12T16:23:30.408Z,-0.48
2018-12-12T16:25:57.851Z,-0.41
2018-12-12T16:28:25.263Z,-0.48
2018-12-12T16:30:52.730Z,-0.42
2018-12-12T16:33:20.136Z,-0.44
2018-12-12T16:35:47.594Z,-0.38
2018-12-12T16:38:14.977Z,-0.39
2018-12-12T16:40:42.385Z,-0.42
2018-12-12T16:43:09.824Z,-0.44
2018-12-12T16:45:37.280Z,-0.51
2018-12-12T16:48:04.784Z,-0.60
2018-12-12T16:50:32.209Z,-0.60
2018-12-12T16:52:59.642Z,-0.57
2018-12-12T16:55:27.035Z,-0.60
2018-12-12T16:57:54.417Z,-0.59
2018-12-12T17:00:21.856Z,-0.61
2018-12-12T17:02:49.292Z,-0.63
2018-12-12T17:05:16.748Z,-0.64
2018-12-12T17:07:44.160Z,-0.73
2018-12-12T17:10:11.539Z,-0.72
2018-12-12T17:12:41.082Z,-0.65
2018-12-12T17:15:08.637Z,-0.67
2018-12-12T17:17:36.105Z,-0.70
2018-12-12T17:20:04.285Z,-0.73
2018-12-12T17:22:31.772Z,-0.76
2018-12-12T17:24:59.188Z,-0.74
2018-12-12T17:27:26.636Z,-0.74
2018-12-12T17:29:54.053Z,-0.75
2018-12-12T17:32:21.443Z,-0.71
2018-12-12T17:34:48.850Z,-0.70
2018-12-12T17:37:16.300Z,-0.64
2018-12-12T17:42:22.604Z,-0.60
2018-12-12T17:44:50.005Z,-0.67
2018-12-12T17:47:17.523Z,-0.75
2018-12-12T17:49:44.948Z,-0.67
2018-12-12T17:52:12.314Z,-0.68
2018-12-12T17:54:39.743Z,-0.77
2018-12-12T17:57:07.084Z,-0.75
2018-12-12T17:59:34.498Z,-0.74
2018-12-12T18:02:02.055Z,-0.73
2018-12-12T18:04:29.844Z,-0.72
2018-12-12T18:06:57.225Z,-0.73
2018-12-12T18:09:24.704Z,-0.75
2018-12-12T18:11:52.137Z,-0.75
2018-12-12T18:14:20.548Z,-0.76
2018-12-12T18:16:47.953Z,-0.80
2018-12-12T18:19:15.359Z,-0.79
2018-12-12T18:21:42.733Z,-0.73
2018-12-12T18:24:10.149Z,-0.75
2018-12-12T18:26:37.620Z,-0.72
2018-12-12T18:29:05.014Z,-0.68
2018-12-12T18:31:32.507Z,-0.62
2018-12-12T18:33:59.859Z,-0.63
2018-12-12T18:36:27.289Z,-0.61
2018-12-12T18:38:54.684Z,-0.59
2018-12-12T18:41:22.095Z,-0.62
2018-12-12T18:43:49.497Z,-0.68
2018-12-12T18:46:16.904Z,-0.67
2018-12-12T18:48:44.355Z,-0.76
2018-12-12T18:51:11.824Z,-0.78
2018-12-12T18:53:39.223Z,-0.77
2018-12-12T18:56:06.647Z,-0.80
2018-12-12T18:58:34.080Z,-0.75
2018-12-12T19:01:01.473Z,-0.69
2018-12-12T19:03:28.939Z,-0.72
2018-12-12T19:05:56.349Z,-0.64
2018-12-12T19:08:23.827Z,-0.73
2018-12-12T19:10:51.245Z,-0.69
2018-12-12T19:13:18.645Z,-0.68
2018-12-12T19:15:46.023Z,-0.72
2018-12-12T19:18:13.476Z,-0.75
2018-12-12T19:20:40.896Z,-0.76
2018-12-12T19:23:08.345Z,-0.75
2018-12-12T19:25:35.735Z,-0.76
2018-12-12T19:28:03.223Z,-0.76
2018-12-12T19:30:30.665Z,-0.76
2018-12-12T19:32:58.069Z,-0.85
2018-12-12T19:35:25.510Z,-0.79
2018-12-12T19:37:52.976Z,-0.83
2018-12-12T19:40:20.378Z,-0.77
2018-12-12T19:42:47.774Z,-0.76
2018-12-12T19:45:15.256Z,-0.83
2018-12-12T19:47:42.679Z,-0.88
2018-12-12T19:50:10.297Z,-0.96
2018-12-12T19:52:37.714Z,-0.86
2018-12-12T19:55:05.268Z,-0.80
2018-12-12T19:57:32.675Z,-0.88
2018-12-12T20:00:00.130Z,-0.89
2018-12-12T20:02:27.542Z,-0.93
2018-12-12T20:04:55.034Z,-0.98
2018-12-12T20:07:22.450Z,-0.94
2018-12-12T20:09:49.901Z,-1.01
2018-12-12T20:12:17.284Z,-1.01
2018-12-12T20:14:44.715Z,-0.92
2018-12-12T20:17:12.104Z,-0.97
2018-12-12T20:19:39.541Z,-1.01
2018-12-12T20:22:06.957Z,-0.95
2018-12-12T20:24:34.349Z,-0.93
2018-12-12T20:27:01.733Z,-0.97
2018-12-12T20:29:29.127Z,-1.03
2018-12-12T20:31:57.551Z,-1.07
2018-12-12T20:34:24.996Z,-1.08
2018-12-12T20:36:52.816Z,-1.15
2018-12-12T20:39:20.224Z,-1.08
2018-12-12T20:41:47.690Z,-1.09
2018-12-12T20:44:16.555Z,-1.18
2018-12-12T20:46:44.129Z,-1.20
2018-12-12T20:49:11.506Z,-1.27
2018-12-12T20:51:43.890Z,-1.35
2018-12-12T20:54:15.335Z,-1.25
2018-12-12T20:56:46.994Z,-1.30
2018-12-12T20:59:19.095Z,-1.34
2018-12-12T21:01:46.695Z,-1.44
2018-12-12T21:04:14.145Z,-1.42
2018-12-12T21:06:41.599Z,-1.45
2018-12-12T21:09:09.054Z,-1.59
2018-12-12T21:11:36.464Z,-1.63
2018-12-12T21:14:03.920Z,-1.72
2018-12-12T21:16:31.363Z,-1.72
2018-12-12T21:18:58.828Z,-1.66
2018-12-12T21:21:26.250Z,-1.75
2018-12-12T21:23:53.674Z,-1.76
2018-12-12T21:26:21.395Z,-1.60
2018-12-12T21:28:48.819Z,-1.69
2018-12-12T21:31:16.246Z,-1.76
2018-12-12T21:33:43.669Z,-1.76
2018-12-12T21:36:11.038Z,-1.86
2018-12-12T21:38:38.597Z,-1.73
2018-12-12T21:41:05.992Z,-1.70
2018-12-12T21:43:33.426Z,-1.69
2018-12-12T21:46:01.376Z,-1.57
2018-12-12T21:48:28.877Z,-1.49
2018-12-12T21:50:56.301Z,-1.58
2018-12-12T21:53:23.735Z,-1.52
2018-12-12T21:58:29.119Z,-1.74
2018-12-12T22:00:56.540Z,-1.83
2018-12-12T22:03:23.941Z,-1.98
2018-12-12T22:05:51.351Z,-2.11
2018-12-12T22:08:18.754Z,-2.31
2018-12-12T22:10:46.156Z,-2.30
2018-12-12T22:13:13.599Z,-2.35
2018-12-12T22:15:41.003Z,-2.44
2018-12-12T22:18:08.359Z,-2.47
2018-12-12T22:20:35.745Z,-2.51
2018-12-12T22:23:03.130Z,-2.54
2018-12-12T22:25:30.479Z,-2.56
2018-12-12T22:27:57.854Z,-2.59
2018-12-12T22:30:25.258Z,-2.66
2018-12-12T22:32:52.690Z,-2.51
2018-12-12T22:35:20.091Z,-2.39
2018-12-12T22:37:47.443Z,-2.28
2018-12-12T22:40:14.798Z,-2.10
2018-12-12T22:42:42.260Z,-2.19
2018-12-12T22:45:09.945Z,-2.10
2018-12-12T22:47:37.319Z,-2.08
2018-12-12T22:50:05.116Z,-2.02
2018-12-12T22:52:32.524Z,-1.95
2018-12-12T22:54:59.901Z,-2.09
2018-12-12T22:57:27.378Z,-2.06
2018-12-12T22:59:54.844Z,-2.11
2018-12-12T23:02:22.500Z,-2.21
2018-12-12T23:04:50.220Z,-2.37
2018-12-12T23:07:18.240Z,-2.24
2018-12-12T23:09:45.570Z,-2.38
2018-12-12T23:12:12.964Z,-2.43
2018-12-12T23:14:40.903Z,-2.29
2018-12-12T23:17:08.303Z,-2.38
2018-12-12T23:19:35.793Z,-2.35
2018-12-12T23:22:03.244Z,-2.36
2018-12-12T23:24:31.049Z,-2.38
2018-12-12T23:26:58.424Z,-2.24
2018-12-12T23:29:25.908Z,-2.23
2018-12-12T23:31:53.257Z,-2.22
2018-12-12T23:34:20.686Z,-2.20
2018-12-12T23:36:48.029Z,-2.19
2018-12-12T23:39:15.419Z,-2.36
2018-12-12T23:41:42.732Z,-2.47
2018-12-12T23:44:10.094Z,-2.55
2018-12-12T23:46:37.455Z,-2.55
2018-12-12T23:49:04.829Z,-2.58
2018-12-12T23:51:32.185Z,-2.54
2018-12-12T23:53:59.543Z,-2.60
2018-12-12T23:56:28.273Z,-2.66
2018-12-12T23:58:55.654Z,-2.63
